»·PEaware :: SWA20 KPHX-KSAN

SWA20 :: KPHX-KSAN

FLIGHT INFORMATION

Flight Status: Arrived
Operator:
Southwest Airlines
More flights by this operator :: More flights under this callsign
Pilot: Camron S. (27302)
Aircraft: BOEING 737-800
(B738)
More flights by this aircraft type
Origin: KPHX Phoenix Sky Harbor Intl
United States
Destination: KSAN San Diego Intl-Lindbergh
United States
More flights between these airports :: More routes between these airports
Route: FYRBD1 MOHAK J2 HOGGZ LUCKI1
File this flight plan on PilotEdge
Remarks:
Altitude:
(Current/Filed)
38,000ft
Speed:
(Current/Filed)
290kts
Departed: 10-Jan-20 05:39 PM
Arrived: 10-Jan-20 06:28 PM
Distance/Time
Traveled:
264nm/0:49
Distance/Time
To Go:
Arrived

Flight Plot

Page will automatically refresh every two minutes.

Flight plan parsing failed; only flown route is shown


Map Options




Map Legend


Flown Route
Filed Route
Departure Airport
Arrival Airport
Navaid (VOR, NDB)
Fix

Horizontal Profiles

Position Reports

Time Latitude Longitude Heading Altitude Ground
Speed
10-Jan-20 17:21 33.434060 -111.998724 292 1129ft 0kts
10-Jan-20 17:21 33.434060 -111.998724 292 1129ft 0kts
10-Jan-20 17:22 33.434060 -111.998724 292 1129ft 0kts
10-Jan-20 17:24 33.434060 -111.998724 292 1129ft 0kts
10-Jan-20 17:24 33.434060 -111.998724 292 1129ft 0kts
10-Jan-20 17:25 33.434060 -111.998724 292 1129ft 0kts
10-Jan-20 17:26 33.434060 -111.998724 292 1129ft 0kts
10-Jan-20 17:27 33.434060 -111.998724 292 1129ft 0kts
10-Jan-20 17:28 33.434060 -111.998724 292 1129ft 0kts
10-Jan-20 17:29 33.434060 -111.998724 292 1129ft 0kts
10-Jan-20 17:30 33.434060 -111.998724 292 1129ft 0kts
10-Jan-20 17:31 33.433981 -111.998484 269 1128ft 2kts
10-Jan-20 17:32 33.434231 -111.998258 178 1129ft 0kts
10-Jan-20 17:33 33.434231 -111.998258 178 1129ft 0kts
10-Jan-20 17:34 33.434231 -111.998258 178 1129ft 0kts
10-Jan-20 17:35 33.433365 -111.998252 179 1126ft 0kts
10-Jan-20 17:36 33.432842 -111.996636 89 1126ft 17kts
10-Jan-20 17:37 33.432296 -111.992448 217 1129ft 3kts
10-Jan-20 17:38 33.431052 -112.001809 269 1127ft 119kts
10-Jan-20 17:39 33.430074 -112.058256 257 3523ft 196kts
10-Jan-20 17:40 33.410464 -112.131179 252 6170ft 261kts
10-Jan-20 17:41 33.347819 -112.176152 170 9493ft 310kts
10-Jan-20 17:42 33.257807 -112.150756 191 12056ft 359kts
10-Jan-20 17:43 33.209245 -112.240400 271 15092ft 349kts
10-Jan-20 17:44 33.166916 -112.349402 238 17996ft 385kts
10-Jan-20 17:45 33.100126 -112.452587 239 20646ft 400kts
10-Jan-20 17:46 33.031404 -112.558780 240 21704ft 406kts
10-Jan-20 17:47 32.965928 -112.667940 254 24149ft 400kts
10-Jan-20 17:48 32.940368 -112.792957 270 26377ft 391kts
10-Jan-20 17:49 32.923191 -112.921539 268 28430ft 398kts
10-Jan-20 17:50 32.905338 -113.052840 267 30237ft 405kts
10-Jan-20 17:51 32.887400 -113.183584 267 32083ft 405kts
10-Jan-20 17:52 32.869300 -113.314548 267 34053ft 397kts
10-Jan-20 17:53 32.851419 -113.443025 267 35692ft 394kts
10-Jan-20 17:54 32.833485 -113.570890 267 37109ft 391kts
10-Jan-20 17:55 32.815512 -113.697835 267 38197ft 395kts
10-Jan-20 17:56 32.796330 -113.829923 267 38243ft 407kts
10-Jan-20 17:57 32.777543 -113.961636 269 38243ft 402kts
10-Jan-20 17:58 32.775395 -114.093052 278 38243ft 396kts
10-Jan-20 17:59 32.781131 -114.223339 278 38241ft 395kts
10-Jan-20 18:00 32.786282 -114.353840 278 38240ft 395kts
10-Jan-20 18:01 32.812552 -114.477913 292 38239ft 386kts
10-Jan-20 18:02 32.846264 -114.599642 292 38237ft 387kts
10-Jan-20 18:03 32.877003 -114.720546 282 38249ft 393kts
10-Jan-20 18:04 32.876586 -114.853802 274 36433ft 404kts
10-Jan-20 18:05 32.873609 -114.986216 274 33910ft 399kts
10-Jan-20 18:06 32.870565 -115.119219 273 31162ft 416kts
10-Jan-20 18:07 32.867166 -115.256774 272 28529ft 409kts
10-Jan-20 18:08 32.858576 -115.388779 265 26245ft 397kts
10-Jan-20 18:09 32.839806 -115.517258 263 24265ft 395kts
10-Jan-20 18:10 32.817998 -115.648998 263 23582ft 397kts
10-Jan-20 18:11 32.796983 -115.777089 262 20715ft 392kts
10-Jan-20 18:12 32.781043 -115.902260 268 19139ft 382kts
10-Jan-20 18:13 32.771886 -116.026574 268 16557ft 375kts
10-Jan-20 18:14 32.762706 -116.148069 267 14043ft 363kts
10-Jan-20 18:15 32.753900 -116.262932 267 12478ft 329kts
10-Jan-20 18:16 32.745739 -116.367418 267 12261ft 316kts
10-Jan-20 18:17 32.736972 -116.479931 267 11033ft 344kts
10-Jan-20 18:18 32.726794 -116.588916 265 9291ft 309kts
10-Jan-20 18:19 32.717944 -116.683670 266 8207ft 262kts
10-Jan-20 18:20 32.711645 -116.765652 266 7070ft 242kts
10-Jan-20 18:21 32.699023 -116.846298 251 5820ft 245kts
10-Jan-20 18:22 32.676065 -116.921967 259 4731ft 238kts
10-Jan-20 18:23 32.686713 -116.997856 287 3537ft 238kts
10-Jan-20 18:24 32.702331 -117.067917 284 2422ft 199kts
10-Jan-20 18:25 32.717143 -117.125061 292 1334ft 161kts
10-Jan-20 18:26 32.729669 -117.173532 287 214ft 147kts
10-Jan-20 18:27 32.735011 -117.198538 249 23ft 15kts
10-Jan-20 18:28 32.735354 -117.202169 234 21ft 6kts

Navigation Log

Ident Type
Flight plan parsing failed, navigation log unavailable